createdAt,value
2018-11-04T00:00:18.927Z,11.5
2018-11-04T00:02:18.662Z,12.5
2018-11-04T00:04:19.402Z,12.2
2018-11-04T00:06:19.408Z,13.4
2018-11-04T00:08:19.161Z,13.4
2018-11-04T00:10:19.343Z,11.7
2018-11-04T00:12:19.057Z,13
2018-11-04T00:14:18.797Z,12.2
2018-11-04T00:16:19.246Z,14.9
2018-11-04T00:18:19.060Z,14
2018-11-04T00:20:18.839Z,14.9
2018-11-04T00:22:18.713Z,14.2
2018-11-04T00:24:19.463Z,13.5
2018-11-04T00:26:18.934Z,13.9
2018-11-04T00:28:18.683Z,12.7
2018-11-04T00:30:19.510Z,11.7
2018-11-04T00:32:19.219Z,11.9
2018-11-04T00:34:18.997Z,11.1
2018-11-04T00:36:19.285Z,12.1
2018-11-04T00:38:19.035Z,11.4
2018-11-04T00:40:19.251Z,10.3
2018-11-04T00:42:19.014Z,10.7
2018-11-04T00:44:18.757Z,10.3
2018-11-04T00:46:18.557Z,11.4
2018-11-04T00:48:19.347Z,10
2018-11-04T00:50:19.223Z,10
2018-11-04T00:52:18.958Z,11.1
2018-11-04T00:54:18.705Z,10.6
2018-11-04T00:56:19.243Z,8.5
2018-11-04T00:58:19.015Z,9.9
2018-11-04T01:00:18.735Z,9.9
2018-11-04T01:02:19.459Z,9.7
2018-11-04T01:04:19.217Z,9.9
2018-11-04T01:06:18.748Z,9.1
2018-11-04T01:08:18.527Z,8.1
2018-11-04T01:10:18.744Z,9.1
2018-11-04T01:12:19.468Z,8.7
2018-11-04T01:14:19.207Z,9.3
2018-11-04T01:16:19.283Z,9.2
2018-11-04T01:18:19.117Z,8.6
2018-11-04T01:20:18.876Z,8.2
2018-11-04T01:22:18.631Z,8.2
2018-11-04T01:24:19.397Z,9.4
2018-11-04T01:26:19.154Z,7.8
2018-11-04T01:28:18.918Z,9
2018-11-04T01:30:18.680Z,7.2
2018-11-04T01:32:18.617Z,7.4
2018-11-04T01:34:19.351Z,7
2018-11-04T01:36:18.805Z,8.5
2018-11-04T01:38:18.562Z,7.2
2018-11-04T01:40:18.801Z,7.3
2018-11-04T01:42:18.508Z,8.2
2018-11-04T01:44:19.256Z,7.7
2018-11-04T01:46:19.267Z,8.2
2018-11-04T01:48:19.012Z,6.8
2018-11-04T01:50:18.727Z,7.8
2018-11-04T01:52:18.485Z,7.8
2018-11-04T01:54:19.256Z,7.5
2018-11-04T01:56:18.772Z,7.4
2018-11-04T01:58:18.533Z,7.4
2018-11-04T02:00:19.301Z,8.5
2018-11-04T02:02:19.060Z,8.5
2018-11-04T02:04:18.812Z,8.9
2018-11-04T02:06:19.322Z,8.8
2018-11-04T02:08:19.077Z,8
2018-11-04T02:10:19.281Z,8.3
2018-11-04T02:12:19.030Z,7.5
2018-11-04T02:14:18.810Z,8.5
2018-11-04T02:16:19.322Z,7.4
2018-11-04T02:18:19.182Z,7.5
2018-11-04T02:20:18.951Z,7
2018-11-04T02:22:18.711Z,9.3
2018-11-04T02:24:19.479Z,8.3
2018-11-04T02:26:19.046Z,8.9
2018-11-04T02:28:18.775Z,8.4
2018-11-04T02:30:18.549Z,9.2
2018-11-04T02:32:19.041Z,9.1
2018-11-04T02:34:18.784Z,7.6
2018-11-04T02:36:18.929Z,8.2
2018-11-04T02:38:18.657Z,9.8
2018-11-04T02:40:18.913Z,9.9
2018-11-04T02:42:18.724Z,8.7
2018-11-04T02:44:19.439Z,9.8
2018-11-04T02:46:19.448Z,10
2018-11-04T02:48:19.206Z,8.1
2018-11-04T02:50:18.926Z,10.3
2018-11-04T02:52:18.684Z,9.9
2018-11-04T02:54:19.438Z,10.1
2018-11-04T02:56:18.662Z,10.1
2018-11-04T02:58:19.384Z,11.3
2018-11-04T03:00:19.191Z,8.8
2018-11-04T03:02:18.919Z,10.8
2018-11-04T03:04:18.700Z,9.8
2018-11-04T03:06:19.269Z,11.5
2018-11-04T03:08:18.993Z,9.6
2018-11-04T03:10:19.226Z,9.9
2018-11-04T03:12:18.949Z,9.2
2018-11-04T03:14:18.672Z,10.3
2018-11-04T03:16:18.699Z,9.4
2018-11-04T03:18:18.522Z,9
2018-11-04T03:20:19.231Z,9.3
2018-11-04T03:22:18.981Z,9.9
2018-11-04T03:24:18.690Z,9.7
2018-11-04T03:26:19.230Z,9.6
2018-11-04T03:28:19.030Z,10.4
2018-11-04T03:30:18.811Z,10.5
2018-11-04T03:32:18.543Z,10.7
2018-11-04T03:34:19.304Z,11.6
2018-11-04T03:36:19.123Z,10.2
2018-11-04T03:38:18.885Z,9.8
2018-11-04T03:40:19.188Z,11
2018-11-04T03:42:18.920Z,11.3
2018-11-04T03:44:18.629Z,12
2018-11-04T03:46:19.499Z,13
2018-11-04T03:48:19.242Z,10.1
2018-11-04T03:50:18.978Z,11.4
2018-11-04T03:52:18.721Z,11.6
2018-11-04T03:54:19.459Z,12.8
2018-11-04T03:56:18.972Z,11
2018-11-04T03:58:18.751Z,13.2
2018-11-04T04:00:19.494Z,12.8
2018-11-04T04:02:19.085Z,12.2
2018-11-04T04:04:18.887Z,12.6
2018-11-04T04:06:19.368Z,12.8
2018-11-04T04:08:19.137Z,11.6
2018-11-04T04:10:19.396Z,13.3
2018-11-04T04:12:19.141Z,11.3
2018-11-04T04:14:18.887Z,12.2
2018-11-04T04:16:19.393Z,13.2
2018-11-04T04:18:19.252Z,13.3
2018-11-04T04:20:19.025Z,12.9
2018-11-04T04:22:18.794Z,13
2018-11-04T04:24:18.558Z,13.7
2018-11-04T04:26:18.557Z,12.3
2018-11-04T04:28:19.332Z,13
2018-11-04T04:30:19.093Z,13.7
2018-11-04T04:32:18.838Z,12.6
2018-11-04T04:34:18.605Z,11.8
2018-11-04T04:36:18.621Z,14.5
2018-11-04T04:38:19.376Z,13
2018-11-04T04:40:18.541Z,13.5
2018-11-04T04:42:19.241Z,14
2018-11-04T04:44:18.959Z,13.2
2018-11-04T04:46:19.465Z,14.3
2018-11-04T04:48:19.239Z,12.9
2018-11-04T04:50:18.995Z,13.9
2018-11-04T04:52:18.746Z,13.7
2018-11-04T04:54:19.470Z,13.4
2018-11-04T04:56:19.038Z,12.8
2018-11-04T04:58:18.821Z,14.9
2018-11-04T05:00:18.577Z,13.2
2018-11-04T05:02:19.319Z,15.4
2018-11-04T05:04:19.107Z,14.6
2018-11-04T05:06:18.566Z,13.1
2018-11-04T05:08:19.342Z,14.8
2018-11-04T05:10:18.583Z,14.4
2018-11-04T05:12:19.311Z,13.8
2018-11-04T05:14:19.050Z,13.1
2018-11-04T05:16:18.566Z,12.8
2018-11-04T05:18:19.383Z,13.4
2018-11-04T05:20:19.131Z,13.5
2018-11-04T05:22:18.898Z,12.3
2018-11-04T05:24:18.644Z,13.6
2018-11-04T05:26:18.669Z,14.1
2018-11-04T05:28:19.451Z,13.6
2018-11-04T05:30:19.190Z,13.7
2018-11-04T05:32:18.930Z,13
2018-11-04T05:34:18.685Z,12.6
2018-11-04T05:36:18.880Z,14
2018-11-04T05:38:18.669Z,13.8
2018-11-04T05:40:19.031Z,13.8
2018-11-04T05:42:18.788Z,14.5
2018-11-04T05:44:18.545Z,13.9
2018-11-04T05:46:18.551Z,14
2018-11-04T05:48:19.297Z,13.9
2018-11-04T05:50:19.032Z,15.4
2018-11-04T05:52:18.804Z,14
2018-11-04T05:54:18.540Z,13.8
2018-11-04T05:56:19.184Z,15
2018-11-04T05:58:18.975Z,15.7
2018-11-04T06:00:18.715Z,15.7
2018-11-04T06:02:19.483Z,13.6
2018-11-04T06:04:19.243Z,13.8
2018-11-04T06:06:19.232Z,14.6
2018-11-04T06:08:18.973Z,14.3
2018-11-04T06:10:19.174Z,15.1
2018-11-04T06:12:18.938Z,14.2
2018-11-04T06:14:18.714Z,15.2
2018-11-04T06:16:19.240Z,14.4
2018-11-04T06:18:19.087Z,13.7
2018-11-04T06:20:18.909Z,15.1
2018-11-04T06:22:18.681Z,13.4
2018-11-04T06:24:19.426Z,15.1
2018-11-04T06:26:19.066Z,14.9
2018-11-04T06:28:18.838Z,15.9
2018-11-04T06:30:18.612Z,16.2
2018-11-04T06:32:19.393Z,14.1
2018-11-04T06:34:19.210Z,14.8
2018-11-04T06:36:18.861Z,15.7
2018-11-04T06:38:18.631Z,14.7
2018-11-04T06:40:18.905Z,15.2
2018-11-04T06:42:18.678Z,14
2018-11-04T06:44:19.432Z,14.5
2018-11-04T06:46:19.272Z,15.5
2018-11-04T06:48:18.906Z,15.1
2018-11-04T06:50:18.664Z,15
2018-11-04T06:52:19.459Z,14.9
2018-11-04T06:54:19.181Z,15.3
2018-11-04T06:56:18.665Z,13.4
2018-11-04T06:58:19.407Z,16.1
2018-11-04T07:00:19.164Z,14.9
2018-11-04T07:02:18.990Z,16.6
2018-11-04T07:04:18.717Z,15.2
2018-11-04T07:06:18.770Z,15.5
2018-11-04T07:08:18.523Z,16.6
2018-11-04T07:10:18.724Z,16.2
2018-11-04T07:12:19.442Z,14.4
2018-11-04T07:14:19.204Z,17.4
2018-11-04T07:16:19.028Z,16.8
2018-11-04T07:18:18.864Z,15.6
2018-11-04T07:20:18.739Z,16
2018-11-04T07:22:19.493Z,18.3
2018-11-04T07:24:19.219Z,15.1
2018-11-04T07:26:18.817Z,16.6
2018-11-04T07:28:18.572Z,15.4
2018-11-04T07:30:19.341Z,15.9
2018-11-04T07:32:19.109Z,15.8
2018-11-04T07:34:18.885Z,13.9
2018-11-04T07:36:18.678Z,16.8
2018-11-04T07:38:19.454Z,19.1
2018-11-04T07:40:18.678Z,15.4
2018-11-04T07:42:19.466Z,17.5
2018-11-04T07:44:19.308Z,16.5
2018-11-04T07:46:19.007Z,16.7
2018-11-04T07:48:18.781Z,16.1
2018-11-04T07:50:18.533Z,15.1
2018-11-04T07:52:19.284Z,16.6
2018-11-04T07:54:19.062Z,15.6
2018-11-04T07:56:18.861Z,15.4
2018-11-04T07:58:18.602Z,15.6
2018-11-04T08:00:19.381Z,16.9
2018-11-04T08:02:19.107Z,17
2018-11-04T08:04:18.933Z,16.8
2018-11-04T08:06:18.813Z,15.5
2018-11-04T08:08:18.537Z,16.7
2018-11-04T08:10:18.969Z,18
2018-11-04T08:12:18.745Z,17.3
2018-11-04T08:14:19.468Z,16.9
2018-11-04T08:16:18.676Z,19
2018-11-04T08:18:18.502Z,18.3
2018-11-04T08:20:19.273Z,18
2018-11-04T08:22:19.034Z,15.8
2018-11-04T08:24:18.796Z,18.6
2018-11-04T08:26:19.290Z,18.1
2018-11-04T08:28:19.058Z,18.8
2018-11-04T08:30:18.852Z,18.3
2018-11-04T08:32:18.580Z,18.1
2018-11-04T08:34:19.353Z,19.3
2018-11-04T08:36:18.921Z,18.1
2018-11-04T08:38:18.677Z,17.3
2018-11-04T08:40:19.007Z,17.7
2018-11-04T08:42:18.939Z,18.6
2018-11-04T08:44:18.671Z,19.2
2018-11-04T08:46:19.163Z,18.4
2018-11-04T08:48:18.944Z,19.6
2018-11-04T08:50:18.835Z,19
2018-11-04T08:52:18.619Z,18.1
2018-11-04T08:54:19.454Z,19.1
2018-11-04T08:56:18.982Z,16.7
2018-11-04T08:58:18.784Z,18.1
2018-11-04T09:00:18.547Z,20.4
2018-11-04T09:02:19.281Z,18.7
2018-11-04T09:04:19.061Z,18.4
2018-11-04T09:06:18.617Z,18.3
2018-11-04T09:08:18.508Z,18.3
2018-11-04T09:10:18.778Z,17.4
2018-11-04T09:12:18.542Z,19.5
2018-11-04T09:14:19.383Z,18.3
2018-11-04T09:16:18.758Z,20.1
2018-11-04T09:18:18.586Z,20.4
2018-11-04T09:20:19.366Z,20
2018-11-04T09:22:19.284Z,19.4
2018-11-04T09:24:19.419Z,21
2018-11-04T09:26:18.937Z,18.4
2018-11-04T09:28:18.693Z,19
2018-11-04T09:30:19.466Z,19.4
2018-11-04T09:32:19.231Z,21.3
2018-11-04T09:34:18.961Z,18.5
2018-11-04T09:36:19.191Z,20
2018-11-04T09:38:19.476Z,18
2018-11-04T09:40:18.704Z,17.7
2018-11-04T09:42:19.461Z,20.3
2018-11-04T09:44:19.227Z,18.6
2018-11-04T09:46:18.675Z,19.4
2018-11-04T09:48:19.434Z,19.6
2018-11-04T09:50:19.209Z,20.8
2018-11-04T09:52:18.754Z,19.9
2018-11-04T09:54:18.538Z,18.7
2018-11-04T09:56:19.128Z,18.8
2018-11-04T09:58:18.920Z,20
2018-11-04T10:00:18.668Z,20.1
2018-11-04T10:02:19.458Z,17.6
2018-11-04T10:04:19.228Z,19.9
2018-11-04T10:06:19.299Z,19.4
2018-11-04T10:08:19.086Z,20
2018-11-04T10:10:19.344Z,18.8
2018-11-04T10:12:19.102Z,18.5
2018-11-04T10:14:18.887Z,20.5
2018-11-04T10:16:19.010Z,17.4
2018-11-04T10:18:18.992Z,19.6
2018-11-04T10:20:18.930Z,20.2
2018-11-04T10:22:18.683Z,20.6
2018-11-04T10:24:19.412Z,18.2
2018-11-04T10:26:19.478Z,19.9
2018-11-04T10:28:19.228Z,20
2018-11-04T10:30:19.063Z,19.3
2018-11-04T10:32:19.056Z,19.2
2018-11-04T10:34:18.819Z,19.6
2018-11-04T10:36:19.364Z,20
2018-11-04T10:38:19.319Z,19.2
2018-11-04T10:40:18.580Z,21.2
2018-11-04T10:42:19.425Z,17.8
2018-11-04T10:44:19.445Z,19.1
2018-11-04T10:46:19.034Z,19.9
2018-11-04T10:48:18.810Z,18.1
2018-11-04T10:50:18.541Z,21.4
2018-11-04T10:52:19.282Z,18.6
2018-11-04T10:54:19.058Z,19.7
2018-11-04T10:56:18.646Z,19.9
2018-11-04T10:58:19.448Z,20.7
2018-11-04T11:00:19.181Z,20.1
2018-11-04T11:02:18.936Z,20.4
2018-11-04T11:04:18.699Z,21.1
2018-11-04T11:06:18.568Z,20.5
2018-11-04T11:08:19.341Z,21.9
2018-11-04T11:10:18.588Z,19.9
2018-11-04T11:12:19.359Z,19.2
2018-11-04T11:14:19.133Z,19.3
2018-11-04T11:16:19.104Z,20.6
2018-11-04T11:18:18.974Z,19.8
2018-11-04T11:20:18.735Z,20.2
2018-11-04T11:22:19.519Z,19
2018-11-04T11:24:19.326Z,20.6
2018-11-04T11:26:18.824Z,20.4
2018-11-04T11:28:18.576Z,20.3
2018-11-04T11:30:19.534Z,20.6
2018-11-04T11:32:18.799Z,21.1
2018-11-04T11:34:18.546Z,20.8
2018-11-04T11:36:18.655Z,18.4
2018-11-04T11:38:19.424Z,21.3
2018-11-04T11:40:18.646Z,21.5
2018-11-04T11:42:19.454Z,20.7
2018-11-04T11:44:19.331Z,20.7
2018-11-04T11:46:19.046Z,20.1
2018-11-04T11:48:18.832Z,20.2
2018-11-04T11:50:18.605Z,20.3
2018-11-04T11:52:19.429Z,20.6
2018-11-04T11:54:19.252Z,20.6
2018-11-04T11:56:19.269Z,21.4
2018-11-04T11:58:19.014Z,20.7
2018-11-04T12:00:18.776Z,21.1
2018-11-04T12:02:19.372Z,20.2
2018-11-04T12:04:19.294Z,20
2018-11-04T12:06:19.374Z,21.1
2018-11-04T12:08:19.125Z,20.1
2018-11-04T12:10:19.348Z,20
2018-11-04T12:12:19.154Z,20
2018-11-04T12:14:18.899Z,20.6
2018-11-04T12:16:18.607Z,22.6
2018-11-04T12:18:19.481Z,20.5
2018-11-04T12:20:19.249Z,21.2
2018-11-04T12:22:18.776Z,20.4
2018-11-04T12:24:18.583Z,21.5
2018-11-04T12:26:19.041Z,20.4
2018-11-04T12:28:18.792Z,20.2
2018-11-04T12:30:18.558Z,22.4
2018-11-04T12:32:19.292Z,21.7
2018-11-04T12:34:19.059Z,21
2018-11-04T12:36:18.686Z,22.4
2018-11-04T12:38:19.443Z,21
2018-11-04T12:40:18.745Z,20.9
2018-11-04T12:42:19.487Z,21.4
2018-11-04T12:44:19.221Z,20.2
2018-11-04T12:46:18.785Z,21.9
2018-11-04T12:48:18.550Z,21.5
2018-11-04T12:50:19.304Z,22.5
2018-11-04T12:52:19.222Z,21
2018-11-04T12:54:19.367Z,21.2
2018-11-04T12:56:19.144Z,22.4
2018-11-04T12:58:18.895Z,20.8
2018-11-04T13:00:18.675Z,22.6
2018-11-04T13:02:19.458Z,23
2018-11-04T13:04:19.207Z,21.3
2018-11-04T13:06:19.421Z,22.7
2018-11-04T13:08:19.198Z,20.6
2018-11-04T13:10:19.610Z,23.2
2018-11-04T13:12:18.569Z,22
2018-11-04T13:14:19.360Z,22.4
2018-11-04T13:16:19.060Z,21.4
2018-11-04T13:18:18.889Z,23.6
2018-11-04T13:20:18.671Z,23.3
2018-11-04T13:22:19.437Z,22.7
2018-11-04T13:24:19.188Z,22.4
2018-11-04T13:26:18.704Z,23.7
2018-11-04T13:28:19.482Z,22.2
2018-11-04T13:30:19.256Z,23.6
2018-11-04T13:32:18.760Z,23.4
2018-11-04T13:34:18.531Z,22.6
2018-11-04T13:36:18.994Z,23.2
2018-11-04T13:38:18.772Z,23.8
2018-11-04T13:40:19.038Z,25.3
2018-11-04T13:42:18.796Z,25.3
2018-11-04T13:44:18.609Z,24.7
2018-11-04T13:46:19.223Z,22.6
2018-11-04T13:48:19.010Z,23.8
2018-11-04T13:50:18.781Z,22.2
2018-11-04T13:52:18.556Z,22.7
2018-11-04T13:54:19.327Z,22.5
2018-11-04T13:56:18.865Z,23.8
2018-11-04T13:58:18.612Z,24.5
2018-11-04T14:00:19.401Z,22.1
2018-11-04T14:02:18.993Z,23
2018-11-04T14:04:18.789Z,25.3
2018-11-04T14:06:19.297Z,24.3
2018-11-04T14:08:19.065Z,23.3
2018-11-04T14:10:19.389Z,22.9
2018-11-04T14:12:19.201Z,23.9
2018-11-04T14:14:18.947Z,23.5
2018-11-04T14:16:19.000Z,23.5
2018-11-04T14:18:18.859Z,24.7
2018-11-04T14:20:18.660Z,26.3
2018-11-04T14:22:19.407Z,22.9
2018-11-04T14:24:19.193Z,26.1
2018-11-04T14:26:18.779Z,25.1
2018-11-04T14:28:18.554Z,22.9
2018-11-04T14:30:19.377Z,24.2
2018-11-04T14:32:19.125Z,24.4
2018-11-04T14:34:18.875Z,25.5
2018-11-04T14:36:19.151Z,25.6
2018-11-04T14:38:18.923Z,23.1
2018-11-04T14:40:19.116Z,26.5
2018-11-04T14:42:18.859Z,24.6
2018-11-04T14:44:18.579Z,25.7
2018-11-04T14:46:19.269Z,25.4
2018-11-04T14:48:19.019Z,22.9
2018-11-04T14:50:18.900Z,24
2018-11-04T14:52:18.665Z,24.2
2018-11-04T14:54:19.423Z,26.1
2018-11-04T14:56:18.624Z,23.8
2018-11-04T14:58:19.395Z,23.6
2018-11-04T15:00:19.152Z,24.1
2018-11-04T15:02:18.924Z,23.7
2018-11-04T15:04:18.702Z,24.9
2018-11-04T15:06:18.856Z,24.8
2018-11-04T15:08:18.644Z,25.1
2018-11-04T15:10:18.894Z,25
2018-11-04T15:12:18.670Z,24.3
2018-11-04T15:14:19.448Z,23.7
2018-11-04T15:16:19.016Z,28.1
2018-11-04T15:18:18.851Z,25
2018-11-04T15:20:18.602Z,24.8
2018-11-04T15:22:19.355Z,25.9
2018-11-04T15:24:19.101Z,25.6
2018-11-04T15:26:19.231Z,26.6
2018-11-04T15:28:19.131Z,23.5
2018-11-04T15:30:18.869Z,26.3
2018-11-04T15:32:18.649Z,25
2018-11-04T15:34:19.577Z,23.4
2018-11-04T15:36:18.923Z,26.2
2018-11-04T15:38:18.768Z,25.3
2018-11-04T15:40:19.156Z,25.5
2018-11-04T15:42:18.977Z,27.5
2018-11-04T15:44:18.757Z,24.8
2018-11-04T15:46:18.883Z,26.3
2018-11-04T15:48:18.626Z,24.3
2018-11-04T15:50:19.468Z,24.9
2018-11-04T15:52:19.223Z,24.9
2018-11-04T15:54:18.973Z,26.3
2018-11-04T15:56:19.072Z,25.7
2018-11-04T15:58:18.789Z,24
2018-11-04T16:00:18.538Z,24.3
2018-11-04T16:02:19.283Z,23.8
2018-11-04T16:04:19.077Z,24.7
2018-11-04T16:06:18.769Z,24
2018-11-04T16:08:18.509Z,26
2018-11-04T16:10:18.733Z,25.7
2018-11-04T16:12:19.407Z,25
2018-11-04T16:14:19.251Z,25.6
2018-11-04T16:16:18.765Z,26.5
2018-11-04T16:18:18.686Z,26.6
2018-11-04T16:20:18.799Z,25.8
2018-11-04T16:22:19.467Z,25.5
2018-11-04T16:24:19.257Z,25.1
2018-11-04T16:26:18.720Z,26.9
2018-11-04T16:28:19.447Z,23.3
2018-11-04T16:30:19.280Z,26
2018-11-04T16:32:19.052Z,26
2018-11-04T16:34:18.777Z,28.9
2018-11-04T16:36:19.294Z,27.5
2018-11-04T16:38:19.047Z,25.6
2018-11-04T16:40:19.310Z,25.7
2018-11-04T16:42:19.089Z,26.8
2018-11-04T16:44:19.117Z,27.8
2018-11-04T16:46:19.381Z,28.9
2018-11-04T16:48:19.152Z,28.6
2018-11-04T16:50:18.907Z,27.6
2018-11-04T16:52:18.655Z,27.4
2018-11-04T16:54:19.455Z,27.4
2018-11-04T16:56:18.661Z,27.2
2018-11-04T16:58:18.578Z,28.8
2018-11-04T17:00:19.332Z,30
2018-11-04T17:02:19.072Z,26.2
2018-11-04T17:04:18.922Z,25.9
2018-11-04T17:06:19.451Z,28.1
2018-11-04T17:08:19.343Z,25.6
2018-11-04T17:10:18.659Z,30.9
2018-11-04T17:12:19.438Z,28.2
2018-11-04T17:14:19.208Z,27.3
2018-11-04T17:16:19.314Z,30.2
2018-11-04T17:18:19.275Z,26.4
2018-11-04T17:20:19.340Z,31.1
2018-11-04T17:22:19.146Z,27.8
2018-11-04T17:24:18.922Z,28.3
2018-11-04T17:26:19.447Z,27.1
2018-11-04T17:28:19.253Z,27.9
2018-11-04T17:30:19.103Z,26.2
2018-11-04T17:32:18.866Z,27.5
2018-11-04T17:34:18.632Z,26.8
2018-11-04T17:36:19.237Z,29.1
2018-11-04T17:38:19.011Z,27.1
2018-11-04T17:40:19.296Z,27
2018-11-04T17:42:19.056Z,26.3
2018-11-04T17:44:18.909Z,28.2
2018-11-04T17:46:19.319Z,24.6
2018-11-04T17:48:19.078Z,28.5
2018-11-04T17:50:18.827Z,24.6
2018-11-04T17:52:19.508Z,27.4
2018-11-04T17:54:19.263Z,28.5
2018-11-04T17:56:19.345Z,25.7
2018-11-04T17:58:19.111Z,27.1
2018-11-04T18:00:18.896Z,27.8
2018-11-04T18:02:18.812Z,31.2
2018-11-04T18:04:18.596Z,25.6
2018-11-04T18:06:19.254Z,25.7
2018-11-04T18:08:19.155Z,23.7
2018-11-04T18:10:19.469Z,24
2018-11-04T18:12:19.220Z,26.4
2018-11-04T18:14:18.964Z,26.8
2018-11-04T18:16:19.040Z,23.6
2018-11-04T18:18:18.868Z,26.3
2018-11-04T18:20:18.718Z,26.3
2018-11-04T18:22:19.484Z,25
2018-11-04T18:24:19.275Z,25.1
2018-11-04T18:26:18.965Z,27.1
2018-11-04T18:28:19.073Z,22.8
2018-11-04T18:30:18.833Z,22.7
2018-11-04T18:32:18.726Z,24.5
2018-11-04T18:34:18.738Z,26.2
2018-11-04T18:36:18.890Z,24.8
2018-11-04T18:38:18.652Z,24.5
2018-11-04T18:40:18.852Z,25.2
2018-11-04T18:42:18.620Z,21
2018-11-04T18:44:19.536Z,22.5
2018-11-04T18:46:19.496Z,22.1
2018-11-04T18:48:19.232Z,22.7
2018-11-04T18:50:18.982Z,21
2018-11-04T18:52:18.932Z,21.5
2018-11-04T18:54:18.836Z,20.8
2018-11-04T18:56:18.934Z,22.3
2018-11-04T18:58:18.694Z,21
2018-11-04T19:00:19.530Z,20.5
2018-11-04T19:02:19.300Z,19.9
2018-11-04T19:04:19.042Z,22.9
2018-11-04T19:06:19.371Z,20.9
2018-11-04T19:08:19.128Z,19.6
2018-11-04T19:10:19.430Z,19.7
2018-11-04T19:12:19.240Z,18.6
2018-11-04T19:14:19.003Z,20.5
2018-11-04T19:16:19.173Z,19
2018-11-04T19:18:19.027Z,18.7
2018-11-04T19:20:18.821Z,18
2018-11-04T19:22:18.582Z,17.6
2018-11-04T19:24:19.374Z,19.3
2018-11-04T19:26:19.439Z,17.5
2018-11-04T19:28:19.183Z,18.4
2018-11-04T19:30:18.922Z,18.6
2018-11-04T19:32:18.685Z,18.3
2018-11-04T19:34:19.443Z,19.1
2018-11-04T19:36:18.517Z,17.9
2018-11-04T19:38:19.267Z,17.5
2018-11-04T19:40:19.446Z,19
2018-11-04T19:42:19.235Z,17.2
2018-11-04T19:44:19.133Z,17.7
2018-11-04T19:46:18.535Z,19.3
2018-11-04T19:48:19.414Z,18.5
2018-11-04T19:50:19.533Z,19
2018-11-04T19:52:19.294Z,18.6
2018-11-04T19:54:19.041Z,18.4
2018-11-04T19:56:19.215Z,18.1
2018-11-04T19:58:19.019Z,17.1
2018-11-04T20:00:18.769Z,19.2
2018-11-04T20:02:18.514Z,17.6
2018-11-04T20:04:19.299Z,18.5
2018-11-04T20:06:19.421Z,17.6
2018-11-04T20:08:19.167Z,19.1
2018-11-04T20:10:19.437Z,17.3
2018-11-04T20:12:19.147Z,16.5
2018-11-04T20:14:18.907Z,17.3
2018-11-04T20:16:18.562Z,17.9
2018-11-04T20:18:19.395Z,17
2018-11-04T20:20:19.321Z,17.8
2018-11-04T20:22:19.392Z,17.2
2018-11-04T20:24:19.137Z,15.7
2018-11-04T20:26:19.268Z,19
2018-11-04T20:28:19.036Z,19.3
2018-11-04T20:30:18.822Z,19
2018-11-04T20:32:18.574Z,18.3
2018-11-04T20:34:19.331Z,18.3
2018-11-04T20:36:19.334Z,17.4
2018-11-04T20:38:19.085Z,17.6
2018-11-04T20:40:19.346Z,17.8
2018-11-04T20:42:19.127Z,17.1
2018-11-04T20:44:18.887Z,16.3
2018-11-04T20:46:19.517Z,16.6
2018-11-04T20:48:19.299Z,17
2018-11-04T20:50:19.100Z,16.1
2018-11-04T20:52:18.929Z,16.8
2018-11-04T20:54:18.667Z,16.9
2018-11-04T20:56:18.673Z,17.6
2018-11-04T20:58:19.616Z,18.7
2018-11-04T21:00:18.910Z,17.1
2018-11-04T21:02:18.934Z,16
2018-11-04T21:04:19.135Z,16.8
2018-11-04T21:06:18.603Z,18
2018-11-04T21:08:19.358Z,16
2018-11-04T21:10:18.581Z,16.5
2018-11-04T21:12:19.320Z,15.5
2018-11-04T21:14:19.124Z,17.3
2018-11-04T21:16:19.238Z,16.3
2018-11-04T21:18:19.283Z,16.8
2018-11-04T21:20:19.109Z,16.4
2018-11-04T21:22:18.872Z,15.5
2018-11-04T21:24:18.636Z,16.8
2018-11-04T21:26:19.371Z,16.1
2018-11-04T21:28:19.231Z,15.5
2018-11-04T21:30:19.226Z,16.9
2018-11-04T21:32:19.036Z,16.7
2018-11-04T21:34:18.828Z,15.7
2018-11-04T21:36:19.177Z,16
2018-11-04T21:38:19.149Z,15.6
2018-11-04T21:40:19.379Z,17.5
2018-11-04T21:42:19.251Z,15.1
2018-11-04T21:44:19.341Z,15.8
2018-11-04T21:46:18.671Z,15.6
2018-11-04T21:48:19.441Z,15.8
2018-11-04T21:50:19.222Z,14.7
2018-11-04T21:52:18.974Z,14.3
2018-11-04T21:54:18.738Z,15.9
2018-11-04T21:56:18.758Z,15.7
2018-11-04T21:58:18.771Z,13.3
2018-11-04T22:00:18.532Z,15.5
2018-11-04T22:02:19.482Z,16.6
2018-11-04T22:04:18.673Z,15.1
2018-11-04T22:06:19.084Z,15.9
2018-11-04T22:08:18.874Z,14.4
2018-11-04T22:10:19.139Z,15.2
2018-11-04T22:12:18.985Z,14.7
2018-11-04T22:14:18.759Z,14.9
2018-11-04T22:16:19.212Z,14.9
2018-11-04T22:18:19.018Z,16.6
2018-11-04T22:20:18.770Z,16
2018-11-04T22:22:18.625Z,15
2018-11-04T22:24:18.555Z,14.5
2018-11-04T22:26:18.598Z,15.2
2018-11-04T22:28:19.357Z,15.7
2018-11-04T22:30:19.107Z,15.5
2018-11-04T22:32:18.877Z,13.9
2018-11-04T22:34:18.622Z,16.1
2018-11-04T22:36:18.644Z,15.3
2018-11-04T22:38:19.463Z,16.1
2018-11-04T22:40:18.748Z,17
2018-11-04T22:42:18.630Z,15.8
2018-11-04T22:44:18.675Z,16.4
2018-11-04T22:46:19.064Z,14.1
2018-11-04T22:48:18.820Z,14.8
2018-11-04T22:50:18.572Z,15.2
2018-11-04T22:52:19.310Z,16.1
2018-11-04T22:54:19.082Z,17.3
2018-11-04T22:56:19.124Z,16.5
2018-11-04T22:58:18.948Z,16.8
2018-11-04T23:00:18.710Z,15.1
2018-11-04T23:02:19.489Z,18.1
2018-11-04T23:04:19.249Z,16.6
2018-11-04T23:06:18.714Z,16.4
2018-11-04T23:08:19.496Z,17.3
2018-11-04T23:10:18.937Z,17.9
2018-11-04T23:12:18.691Z,16.5
2018-11-04T23:14:19.483Z,17.8
2018-11-04T23:16:19.035Z,17.3
2018-11-04T23:18:18.911Z,17.2
2018-11-04T23:20:18.751Z,18.2
2018-11-04T23:22:19.314Z,16.3
2018-11-04T23:24:19.050Z,15.4
2018-11-04T23:26:18.547Z,16
2018-11-04T23:28:19.282Z,17.8
2018-11-04T23:30:19.045Z,18.3
2018-11-04T23:32:19.213Z,18
2018-11-04T23:34:18.970Z,18
2018-11-04T23:36:18.965Z,18
2018-11-04T23:38:18.744Z,17.8
2018-11-04T23:40:18.972Z,17.5
2018-11-04T23:42:18.707Z,16.6
2018-11-04T23:44:19.495Z,17.5
2018-11-04T23:46:18.947Z,18
2018-11-04T23:48:18.696Z,16.8
2018-11-04T23:50:19.463Z,17.3
2018-11-04T23:52:19.213Z,18.5
2018-11-04T23:54:18.967Z,20.3
2018-11-04T23:56:19.218Z,17.9
2018-11-04T23:58:18.980Z,17.8
